createdAt,value
2023-02-22T01:11:55.301Z,5.72
2023-02-22T01:14:23.729Z,4.95
2023-02-22T01:16:51.059Z,4.28
2023-02-22T01:19:17.606Z,5.60
2023-02-22T01:21:44.034Z,4.95
2023-02-22T01:24:10.515Z,5.80
2023-02-22T01:26:38.415Z,5.07
2023-02-22T01:29:05.094Z,5.22
2023-02-22T01:31:31.689Z,5.30
2023-02-22T01:33:58.213Z,5.78
2023-02-22T01:36:24.678Z,6.57
2023-02-22T01:38:51.115Z,4.93
2023-02-22T01:41:18.489Z,5.25
2023-02-22T01:43:45.867Z,6.13
2023-02-22T01:46:26.966Z,7.28
2023-02-22T01:49:05.941Z,4.90
2023-02-22T01:51:37.722Z,5.15
2023-02-22T01:54:10.101Z,4.47
2023-02-22T01:56:41.359Z,5.32
2023-02-22T01:59:10.949Z,4.82
2023-02-22T02:01:39.909Z,5.53
2023-02-22T02:04:11.851Z,6.00
2023-02-22T02:10:21.641Z,5.40
2023-02-22T02:12:51.090Z,6.28
2023-02-22T02:15:26.413Z,6.32
2023-02-22T02:17:54.898Z,4.80
2023-02-22T02:20:32.698Z,6.60
2023-02-22T02:23:14.497Z,5.55
2023-02-22T02:28:50.610Z,5.03
2023-02-22T02:31:27.632Z,4.65
2023-02-22T02:34:04.252Z,5.22
2023-02-22T02:36:49.033Z,5.18
2023-02-22T02:39:52.158Z,5.30
2023-02-22T02:42:22.876Z,6.05
2023-02-22T02:45:15.427Z,5.97
2023-02-22T02:47:47.961Z,5.72
2023-02-22T02:50:30.662Z,6.63
2023-02-22T02:53:02.455Z,5.25
2023-02-22T02:55:31.696Z,5.63
2023-02-22T02:57:59.357Z,5.43
2023-02-22T03:00:31.827Z,6.50
2023-02-22T03:03:16.837Z,5.95
2023-02-22T03:06:24.445Z,6.95
2023-02-22T03:09:03.650Z,6.35
2023-02-22T03:12:02.169Z,7.45
2023-02-22T03:14:45.510Z,5.30
2023-02-22T03:17:16.087Z,5.97
2023-02-22T03:19:47.584Z,5.65
2023-02-22T03:22:50.893Z,5.78
2023-02-22T03:25:22.982Z,6.60
2023-02-22T03:27:53.987Z,5.95
2023-02-22T03:30:26.643Z,5.88
2023-02-22T03:32:59.473Z,6.25
2023-02-22T03:35:31.995Z,4.78
2023-02-22T03:38:02.043Z,5.50
2023-02-22T03:40:33.486Z,6.63
2023-02-22T03:43:05.007Z,6.32
2023-02-22T03:48:21.673Z,5.43
2023-02-22T03:50:49.598Z,5.07
2023-02-22T03:53:18.625Z,5.28
2023-02-22T03:55:51.788Z,6.38
2023-02-22T03:58:21.758Z,4.72
2023-02-22T04:00:53.008Z,5.78
2023-02-22T04:03:21.404Z,6.35
2023-02-22T04:05:48.088Z,6.05
2023-02-22T04:08:14.970Z,5.68
2023-02-22T04:10:41.581Z,5.40
2023-02-22T04:13:08.171Z,5.47
2023-02-22T04:15:35.228Z,5.35
2023-02-22T04:18:01.664Z,5.93
2023-02-22T04:20:28.075Z,6.07
2023-02-22T04:22:55.643Z,5.57
2023-02-22T04:25:23.709Z,5.70
2023-02-22T04:27:50.297Z,5.30
2023-02-22T04:30:18.741Z,5.78
2023-02-22T04:32:45.609Z,6.65
2023-02-22T04:35:12.350Z,6.32
2023-02-22T04:37:38.908Z,5.72
2023-02-22T04:40:09.129Z,5.97
2023-02-22T04:42:36.380Z,6.13
2023-02-22T04:45:04.112Z,7.60
2023-02-22T04:47:30.586Z,7.60
2023-02-22T04:49:57.197Z,5.55
2023-02-22T04:52:23.656Z,5.93
2023-02-22T04:54:50.750Z,6.00
2023-02-22T04:57:17.202Z,6.60
2023-02-22T04:59:43.659Z,6.65
2023-02-22T05:02:10.135Z,6.97
2023-02-22T05:04:38.505Z,7.05
2023-02-22T05:07:05.161Z,8.32
2023-02-22T05:09:31.566Z,6.25
2023-02-22T07:51:02.867Z,8.38
2023-02-22T07:53:31.669Z,10.02
2023-02-22T07:55:58.805Z,9.60
2023-02-22T07:58:27.435Z,7.43
2023-02-22T08:00:54.615Z,7.15
2023-02-22T08:03:23.867Z,9.05
2023-02-22T08:05:56.116Z,7.80
2023-02-22T09:21:59.988Z,8.45
2023-02-22T09:24:27.343Z,7.13
2023-02-22T09:26:54.147Z,8.40
2023-02-22T09:29:25.704Z,7.07
2023-02-22T09:31:54.750Z,8.55
2023-02-22T09:34:29.406Z,7.00
2023-02-22T09:36:57.872Z,8.45
2023-02-22T09:39:24.777Z,8.30
2023-02-22T09:42:09.915Z,8.65
2023-02-22T09:45:03.446Z,8.90
2023-02-22T09:47:41.194Z,7.55
2023-02-22T09:50:16.293Z,8.52
2023-02-22T09:53:00.621Z,8.15
2023-02-22T09:55:34.817Z,7.18
2023-02-22T09:58:14.048Z,5.95
2023-02-22T10:00:43.748Z,6.78
2023-02-22T10:03:34.621Z,5.55
2023-02-22T10:06:10.556Z,6.07
2023-02-22T10:08:41.722Z,6.35
2023-02-22T10:11:10.815Z,6.85
2023-02-22T10:13:48.651Z,5.85
2023-02-22T10:16:24.184Z,7.45
2023-02-22T10:19:15.070Z,7.53
2023-02-22T10:22:05.186Z,6.55
2023-02-22T10:24:39.763Z,5.18
2023-02-22T10:27:18.930Z,5.97
2023-02-22T10:29:53.013Z,6.43
2023-02-22T10:32:26.144Z,6.32
2023-02-22T10:34:55.379Z,6.10
2023-02-22T10:37:31.215Z,7.03
2023-02-22T10:40:23.967Z,6.20
2023-02-22T10:42:50.604Z,8.85
2023-02-22T10:45:34.521Z,7.43
2023-02-22T10:48:08.427Z,6.20
2023-02-22T10:50:37.558Z,6.43
2023-02-22T10:53:04.084Z,6.68
2023-02-22T10:55:31.217Z,12.10
2023-02-22T10:58:04.633Z,10.05
2023-02-22T11:00:37.211Z,6.60
2023-02-22T11:03:17.674Z,6.20
2023-02-22T11:05:44.951Z,5.53
2023-02-22T11:08:20.628Z,5.28
2023-02-22T11:10:48.921Z,6.28
2023-02-22T11:13:25.972Z,5.90
2023-02-22T11:15:54.561Z,5.47
2023-02-22T11:18:27.536Z,6.82
2023-02-22T11:21:07.628Z,6.82
2023-02-22T11:23:36.193Z,6.35
2023-02-22T11:26:20.319Z,7.43
2023-02-22T11:28:50.993Z,6.47
2023-02-22T11:31:22.275Z,5.38
2023-02-22T11:33:59.342Z,6.28
2023-02-22T11:36:42.870Z,6.75
2023-02-22T11:39:34.627Z,6.18
2023-02-22T11:42:23.106Z,5.15
2023-02-22T11:44:57.014Z,7.07
2023-02-22T11:47:24.659Z,6.05
2023-02-22T11:49:53.454Z,5.20
2023-02-22T11:52:32.239Z,6.63
2023-02-22T11:55:09.881Z,4.88
2023-02-22T11:57:46.344Z,6.38
2023-02-22T12:00:24.901Z,5.90
2023-02-22T12:03:13.709Z,4.93
2023-02-22T12:06:10.615Z,6.45
2023-02-22T12:08:37.492Z,5.47
2023-02-22T12:11:03.926Z,4.32
2023-02-22T12:13:48.506Z,5.30
2023-02-22T12:16:44.234Z,5.05
2023-02-22T12:19:19.544Z,4.47
2023-02-22T12:21:53.155Z,6.20
2023-02-22T12:24:24.118Z,5.70
2023-02-22T12:26:56.912Z,5.10
2023-02-22T12:29:30.961Z,4.68
2023-02-22T12:32:26.782Z,4.90
2023-02-22T12:34:59.506Z,4.65
2023-02-22T12:37:51.106Z,5.07
2023-02-22T12:40:29.619Z,4.45
2023-02-22T12:42:56.008Z,5.13
2023-02-22T12:45:36.558Z,5.45
2023-02-22T12:48:26.239Z,4.13
2023-02-22T12:50:59.254Z,4.57
2023-02-22T12:53:31.273Z,4.50
2023-02-22T12:56:25.724Z,4.15
2023-02-22T12:59:10.065Z,5.40
2023-02-22T13:01:46.745Z,4.78
2023-02-22T13:04:21.073Z,5.28
2023-02-22T13:07:23.974Z,5.43
2023-02-22T13:10:02.408Z,4.72
2023-02-22T13:12:36.760Z,4.07
2023-02-22T13:15:09.314Z,4.70
2023-02-22T13:17:54.783Z,5.78
2023-02-22T13:20:41.217Z,5.05
2023-02-22T13:23:26.294Z,5.03
2023-02-22T13:26:29.028Z,4.50
2023-02-22T13:29:04.438Z,4.40
2023-02-22T13:31:55.610Z,4.60
2023-02-22T13:34:40.203Z,4.47
2023-02-22T13:37:14.355Z,4.05
2023-02-22T13:39:54.723Z,5.15
2023-02-22T13:43:03.751Z,3.40
2023-02-22T13:45:39.339Z,5.18
2023-02-22T13:48:17.662Z,5.20
2023-02-22T13:51:02.634Z,4.70
2023-02-22T13:53:39.656Z,4.43
2023-02-22T13:56:07.091Z,5.07
2023-02-22T15:42:20.924Z,5.53
2023-02-22T15:58:18.026Z,4.25
2023-02-22T16:00:49.866Z,5.43
2023-02-22T16:03:23.097Z,4.15
2023-02-22T16:05:53.115Z,4.25
2023-02-22T16:08:24.103Z,4.72
2023-02-22T16:11:02.812Z,4.25
2023-02-22T16:13:33.219Z,4.13
2023-02-22T16:16:04.411Z,5.07
2023-02-22T16:18:36.820Z,4.15
2023-02-22T16:21:05.331Z,4.03
2023-02-22T16:23:33.543Z,4.50
2023-02-22T16:39:30.736Z,5.23
2023-02-22T16:42:00.307Z,4.47
2023-02-22T16:44:27.642Z,5.60
2023-02-22T16:46:56.260Z,5.15
2023-02-22T16:49:25.915Z,5.00
2023-02-22T16:52:03.291Z,6.43
2023-02-22T16:54:43.186Z,4.70
2023-02-22T16:57:17.652Z,5.53
2023-02-22T16:59:44.816Z,4.57
2023-02-22T17:02:15.584Z,5.60
2023-02-22T17:04:43.886Z,3.40
2023-02-22T17:07:10.393Z,5.20
2023-02-22T17:09:36.840Z,4.45
2023-02-22T17:12:03.554Z,6.05
2023-02-22T17:35:27.284Z,5.13
2023-02-22T18:33:30.775Z,5.30
2023-02-22T18:35:59.498Z,5.45
2023-02-22T18:38:26.420Z,4.55
2023-02-22T18:40:59.868Z,6.35
2023-02-22T18:43:26.990Z,5.07
2023-02-22T18:45:53.834Z,6.38
2023-02-22T18:48:20.369Z,4.93
2023-02-22T18:50:46.842Z,5.97
2023-02-22T18:53:13.308Z,4.95
2023-02-22T18:55:39.910Z,4.60
2023-02-22T18:58:06.362Z,4.85
2023-02-22T19:00:35.233Z,5.10
2023-02-22T19:03:01.782Z,5.63
2023-02-22T19:05:28.652Z,5.13
2023-02-22T19:07:55.152Z,4.88
2023-02-22T19:10:22.526Z,5.07
2023-02-22T19:12:49.126Z,5.57
2023-02-22T19:15:15.633Z,5.80
2023-02-22T19:17:42.902Z,5.28
2023-02-22T19:20:10.669Z,5.35
2023-02-22T19:25:05.087Z,5.13
2023-02-22T19:27:33.895Z,5.85
2023-02-22T19:30:00.712Z,5.25
2023-02-22T19:32:27.384Z,5.68
2023-02-22T19:35:02.235Z,5.18
2023-02-22T19:37:34.158Z,4.07
2023-02-22T19:40:02.812Z,4.10
2023-02-22T19:42:29.693Z,5.40
2023-02-22T19:44:56.173Z,4.68
2023-02-22T19:47:22.633Z,4.65
2023-02-22T19:49:50.269Z,5.55
2023-02-22T19:52:17.002Z,5.43
2023-02-22T19:54:44.456Z,5.30
2023-02-22T19:57:11.564Z,5.13
2023-02-22T19:59:39.019Z,4.95
2023-02-22T20:02:06.204Z,5.05
2023-02-22T20:04:34.136Z,5.70
2023-02-22T20:07:00.670Z,4.85
2023-02-22T20:09:36.217Z,5.35
2023-02-22T20:12:06.784Z,5.32
2023-02-22T20:14:34.136Z,5.72
2023-02-22T20:17:01.029Z,6.53
2023-02-22T20:19:28.435Z,6.32
2023-02-22T20:21:56.136Z,5.72
2023-02-22T20:24:23.923Z,5.80
2023-02-22T20:26:51.387Z,5.50
2023-02-22T20:29:17.898Z,5.72
2023-02-22T20:31:49.134Z,6.00
2023-02-22T20:34:15.661Z,5.85
2023-02-22T20:36:42.272Z,5.38
2023-02-22T20:39:13.331Z,5.10
2023-02-22T20:41:42.492Z,7.18
2023-02-22T20:44:13.466Z,5.90
2023-02-22T20:46:39.981Z,6.28
2023-02-22T20:49:08.831Z,6.68
2023-02-22T20:51:35.703Z,6.18
2023-02-22T20:54:02.408Z,6.45
2023-02-22T20:56:31.578Z,6.50
2023-02-22T20:59:00.480Z,6.22
2023-02-22T21:01:27.264Z,4.75
2023-02-22T21:03:53.916Z,6.07
2023-02-22T21:06:21.888Z,6.07
2023-02-22T21:08:57.279Z,6.68
2023-02-22T21:11:25.847Z,5.93
2023-02-22T21:13:53.206Z,6.05
2023-02-22T21:16:25.824Z,5.22
2023-02-22T21:19:00.104Z,7.00
2023-02-22T21:21:27.920Z,6.10
2023-02-22T21:23:56.394Z,6.28
2023-02-22T21:26:29.642Z,7.20
2023-02-22T21:29:00.389Z,6.80
2023-02-22T21:31:27.770Z,7.60
2023-02-22T21:33:56.371Z,6.45
2023-02-22T21:36:26.673Z,7.97
2023-02-22T21:38:56.198Z,6.30
2023-02-22T21:41:33.948Z,7.93
2023-02-22T21:44:00.523Z,6.78
2023-02-22T21:46:29.230Z,7.57
2023-02-22T21:48:59.048Z,8.50
2023-02-22T21:51:34.185Z,8.25
2023-02-22T21:54:03.251Z,8.55
2023-02-22T21:56:32.580Z,8.52
2023-02-22T21:59:05.259Z,8.70
2023-02-22T22:01:36.810Z,7.90
2023-02-22T22:06:32.511Z,7.97
2023-02-22T22:09:04.610Z,7.85
2023-02-22T22:11:31.032Z,9.07
2023-02-22T22:13:58.955Z,7.90
2023-02-22T22:16:28.627Z,8.15
2023-02-22T22:18:55.350Z,8.70
2023-02-22T22:21:24.024Z,8.98
2023-02-22T22:23:55.817Z,7.80
2023-02-22T22:26:25.918Z,9.45
2023-02-22T22:28:56.127Z,9.70
2023-02-22T22:31:24.702Z,9.18
2023-02-22T22:33:51.959Z,9.50
2023-02-22T22:36:21.275Z,10.15
2023-02-22T22:38:48.647Z,8.65
2023-02-22T22:41:19.550Z,9.10
2023-02-22T22:43:47.074Z,9.73
2023-02-22T22:46:16.165Z,10.10
2023-02-22T22:48:46.688Z,9.93
2023-02-22T22:51:19.058Z,9.75
2023-02-22T22:53:47.842Z,10.50
2023-02-22T22:56:21.457Z,9.63
2023-02-22T22:58:54.265Z,9.95
2023-02-22T23:01:27.251Z,10.13
2023-02-22T23:04:01.607Z,9.88
2023-02-22T23:06:33.781Z,11.02
2023-02-22T23:09:01.826Z,10.98
2023-02-22T23:11:30.332Z,11.02
2023-02-22T23:13:56.835Z,11.23
2023-02-22T23:16:24.419Z,10.57
2023-02-22T23:18:51.428Z,10.70
2023-02-22T23:21:19.673Z,10.80
2023-02-22T23:23:51.269Z,12.35
2023-02-22T23:26:18.048Z,11.80
2023-02-22T23:28:47.120Z,11.45
2023-02-22T23:31:16.727Z,11.90
2023-02-22T23:33:45.253Z,12.02
2023-02-22T23:36:12.465Z,11.10
2023-02-22T23:38:41.774Z,11.15
2023-02-22T23:41:10.956Z,11.85
2023-02-22T23:43:41.531Z,12.57
2023-02-22T23:46:11.663Z,12.25
2023-02-22T23:48:39.142Z,12.93
2023-02-22T23:51:10.939Z,11.80
2023-02-22T23:53:39.226Z,11.80
2023-02-22T23:56:09.980Z,12.68
2023-02-22T23:58:38.427Z,13.48
